sensor_id;sensor_type;location;lat;lon;timestamp;P1;durP1;ratioP1;P2;durP2;ratioP2
77010;SDS011;65945;53.148;17.956;2023-05-16T00:00:33;12.50;;;9.30;;
77010;SDS011;65945;53.148;17.956;2023-05-16T00:03:20;12.00;;;9.30;;
77010;SDS011;65945;53.148;17.956;2023-05-16T00:05:47;11.80;;;8.40;;
77010;SDS011;65945;53.148;17.956;2023-05-16T00:08:13;10.90;;;9.00;;
77010;SDS011;65945;53.148;17.956;2023-05-16T00:10:40;10.40;;;6.90;;
77010;SDS011;65945;53.148;17.956;2023-05-16T00:13:06;10.30;;;8.40;;
77010;SDS011;65945;53.148;17.956;2023-05-16T00:15:33;11.80;;;7.70;;
77010;SDS011;65945;53.148;17.956;2023-05-16T00:18:00;15.10;;;8.80;;
77010;SDS011;65945;53.148;17.956;2023-05-16T00:20:27;12.10;;;8.90;;
77010;SDS011;65945;53.148;17.956;2023-05-16T00:22:54;11.00;;;9.00;;
77010;SDS011;65945;53.148;17.956;2023-05-16T00:25:21;12.50;;;8.10;;
77010;SDS011;65945;53.148;17.956;2023-05-16T00:27:48;10.90;;;9.10;;
77010;SDS011;65945;53.148;17.956;2023-05-16T00:30:15;9.40;;;7.80;;
77010;SDS011;65945;53.148;17.956;2023-05-16T00:32:41;11.70;;;8.30;;
77010;SDS011;65945;53.148;17.956;2023-05-16T00:35:08;12.60;;;8.20;;
77010;SDS011;65945;53.148;17.956;2023-05-16T00:37:37;11.50;;;8.40;;
77010;SDS011;65945;53.148;17.956;2023-05-16T00:40:04;9.90;;;7.80;;
77010;SDS011;65945;53.148;17.956;2023-05-16T00:42:31;10.80;;;7.50;;
77010;SDS011;65945;53.148;17.956;2023-05-16T00:44:58;13.50;;;7.70;;
77010;SDS011;65945;53.148;17.956;2023-05-16T00:47:25;11.00;;;7.10;;
77010;SDS011;65945;53.148;17.956;2023-05-16T00:49:52;11.80;;;7.80;;
77010;SDS011;65945;53.148;17.956;2023-05-16T00:52:20;11.30;;;7.50;;
77010;SDS011;65945;53.148;17.956;2023-05-16T00:54:47;12.60;;;7.40;;
77010;SDS011;65945;53.148;17.956;2023-05-16T00:57:14;8.40;;;6.70;;
77010;SDS011;65945;53.148;17.956;2023-05-16T00:59:43;7.90;;;5.70;;
77010;SDS011;65945;53.148;17.956;2023-05-16T01:02:11;8.00;;;6.10;;
77010;SDS011;65945;53.148;17.956;2023-05-16T01:04:38;11.40;;;6.90;;
77010;SDS011;65945;53.148;17.956;2023-05-16T01:07:05;7.90;;;6.00;;
77010;SDS011;65945;53.148;17.956;2023-05-16T01:09:34;9.10;;;6.60;;
77010;SDS011;65945;53.148;17.956;2023-05-16T01:14:50;8.80;;;6.70;;
77010;SDS011;65945;53.148;17.956;2023-05-16T01:20:13;10.10;;;6.90;;
77010;SDS011;65945;53.148;17.956;2023-05-16T01:23:12;8.90;;;6.30;;
77010;SDS011;65945;53.148;17.956;2023-05-16T01:28:23;11.90;;;7.10;;
77010;SDS011;65945;53.148;17.956;2023-05-16T01:30:51;8.70;;;7.20;;
77010;SDS011;65945;53.148;17.956;2023-05-16T01:33:17;10.30;;;7.30;;
77010;SDS011;65945;53.148;17.956;2023-05-16T01:36:04;9.30;;;6.60;;
77010;SDS011;65945;53.148;17.956;2023-05-16T01:41:19;7.60;;;5.80;;
77010;SDS011;65945;53.148;17.956;2023-05-16T01:43:50;8.20;;;6.20;;
77010;SDS011;65945;53.148;17.956;2023-05-16T01:46:25;8.00;;;6.60;;
77010;SDS011;65945;53.148;17.956;2023-05-16T01:49:07;12.30;;;7.10;;
77010;SDS011;65945;53.148;17.956;2023-05-16T01:51:48;7.60;;;6.20;;
77010;SDS011;65945;53.148;17.956;2023-05-16T01:54:28;8.20;;;6.30;;
77010;SDS011;65945;53.148;17.956;2023-05-16T01:56:57;7.30;;;5.80;;
77010;SDS011;65945;53.148;17.956;2023-05-16T01:59:26;9.70;;;6.50;;
77010;SDS011;65945;53.148;17.956;2023-05-16T02:01:53;8.70;;;6.30;;
77010;SDS011;65945;53.148;17.956;2023-05-16T02:04:22;8.30;;;5.90;;
77010;SDS011;65945;53.148;17.956;2023-05-16T02:06:49;8.30;;;6.50;;
77010;SDS011;65945;53.148;17.956;2023-05-16T02:09:17;9.00;;;5.40;;
77010;SDS011;65945;53.148;17.956;2023-05-16T02:11:44;7.00;;;6.10;;
77010;SDS011;65945;53.148;17.956;2023-05-16T02:14:12;7.30;;;4.90;;
77010;SDS011;65945;53.148;17.956;2023-05-16T02:16:39;5.80;;;4.20;;
77010;SDS011;65945;53.148;17.956;2023-05-16T02:19:05;5.00;;;4.40;;
77010;SDS011;65945;53.148;17.956;2023-05-16T02:21:32;6.20;;;4.70;;
77010;SDS011;65945;53.148;17.956;2023-05-16T02:23:58;7.30;;;4.30;;
77010;SDS011;65945;53.148;17.956;2023-05-16T02:26:26;8.30;;;5.00;;
77010;SDS011;65945;53.148;17.956;2023-05-16T02:28:53;7.90;;;4.30;;
77010;SDS011;65945;53.148;17.956;2023-05-16T02:31:26;7.10;;;5.20;;
77010;SDS011;65945;53.148;17.956;2023-05-16T02:33:53;6.60;;;4.20;;
77010;SDS011;65945;53.148;17.956;2023-05-16T02:36:20;5.60;;;4.30;;
77010;SDS011;65945;53.148;17.956;2023-05-16T02:38:47;4.80;;;3.10;;
77010;SDS011;65945;53.148;17.956;2023-05-16T02:41:14;5.50;;;3.30;;
77010;SDS011;65945;53.148;17.956;2023-05-16T02:43:41;4.40;;;3.40;;
77010;SDS011;65945;53.148;17.956;2023-05-16T02:46:19;3.90;;;3.00;;
77010;SDS011;65945;53.148;17.956;2023-05-16T02:48:50;3.30;;;2.40;;
77010;SDS011;65945;53.148;17.956;2023-05-16T02:51:18;4.20;;;3.00;;
77010;SDS011;65945;53.148;17.956;2023-05-16T02:53:46;4.30;;;2.70;;
77010;SDS011;65945;53.148;17.956;2023-05-16T02:56:13;3.20;;;2.50;;
77010;SDS011;65945;53.148;17.956;2023-05-16T02:58:40;4.00;;;2.50;;
77010;SDS011;65945;53.148;17.956;2023-05-16T03:01:07;3.40;;;2.40;;
77010;SDS011;65945;53.148;17.956;2023-05-16T03:03:35;4.30;;;2.50;;
77010;SDS011;65945;53.148;17.956;2023-05-16T03:06:02;3.50;;;2.50;;
77010;SDS011;65945;53.148;17.956;2023-05-16T03:08:29;6.20;;;2.00;;
77010;SDS011;65945;53.148;17.956;2023-05-16T03:10:56;3.10;;;2.20;;
77010;SDS011;65945;53.148;17.956;2023-05-16T03:13:22;3.40;;;2.40;;
77010;SDS011;65945;53.148;17.956;2023-05-16T03:15:50;4.20;;;2.40;;
77010;SDS011;65945;53.148;17.956;2023-05-16T03:18:18;3.00;;;2.10;;
77010;SDS011;65945;53.148;17.956;2023-05-16T03:20:44;2.70;;;1.90;;
77010;SDS011;65945;53.148;17.956;2023-05-16T03:23:11;5.20;;;2.60;;
77010;SDS011;65945;53.148;17.956;2023-05-16T03:25:38;3.90;;;2.30;;
77010;SDS011;65945;53.148;17.956;2023-05-16T03:28:05;4.10;;;2.30;;
77010;SDS011;65945;53.148;17.956;2023-05-16T03:30:35;4.10;;;2.40;;
77010;SDS011;65945;53.148;17.956;2023-05-16T03:33:02;3.10;;;2.30;;
77010;SDS011;65945;53.148;17.956;2023-05-16T03:35:32;3.70;;;2.80;;
77010;SDS011;65945;53.148;17.956;2023-05-16T03:37:59;2.90;;;2.10;;
77010;SDS011;65945;53.148;17.956;2023-05-16T03:40:26;4.30;;;2.50;;
77010;SDS011;65945;53.148;17.956;2023-05-16T03:42:53;3.20;;;2.20;;
77010;SDS011;65945;53.148;17.956;2023-05-16T03:45:19;3.00;;;1.90;;
77010;SDS011;65945;53.148;17.956;2023-05-16T03:47:47;3.80;;;2.60;;
77010;SDS011;65945;53.148;17.956;2023-05-16T03:50:14;7.30;;;2.50;;
77010;SDS011;65945;53.148;17.956;2023-05-16T03:52:41;4.60;;;2.50;;
77010;SDS011;65945;53.148;17.956;2023-05-16T03:55:09;3.80;;;2.30;;
77010;SDS011;65945;53.148;17.956;2023-05-16T03:57:36;3.20;;;2.60;;
77010;SDS011;65945;53.148;17.956;2023-05-16T04:00:05;2.50;;;2.10;;
77010;SDS011;65945;53.148;17.956;2023-05-16T04:02:38;7.20;;;2.50;;
77010;SDS011;65945;53.148;17.956;2023-05-16T04:05:06;4.20;;;2.40;;
77010;SDS011;65945;53.148;17.956;2023-05-16T04:07:35;2.70;;;1.90;;
77010;SDS011;65945;53.148;17.956;2023-05-16T04:10:03;3.60;;;2.50;;
77010;SDS011;65945;53.148;17.956;2023-05-16T04:12:30;2.60;;;2.10;;
77010;SDS011;65945;53.148;17.956;2023-05-16T04:14:57;3.40;;;2.50;;
77010;SDS011;65945;53.148;17.956;2023-05-16T04:17:24;3.00;;;1.90;;
77010;SDS011;65945;53.148;17.956;2023-05-16T04:19:51;2.80;;;2.30;;
77010;SDS011;65945;53.148;17.956;2023-05-16T04:22:19;3.80;;;2.10;;
77010;SDS011;65945;53.148;17.956;2023-05-16T04:24:47;3.80;;;2.00;;
77010;SDS011;65945;53.148;17.956;2023-05-16T04:27:14;4.10;;;2.30;;
77010;SDS011;65945;53.148;17.956;2023-05-16T04:29:41;4.50;;;2.50;;
77010;SDS011;65945;53.148;17.956;2023-05-16T04:32:08;2.60;;;2.10;;
77010;SDS011;65945;53.148;17.956;2023-05-16T04:34:36;5.70;;;2.30;;
77010;SDS011;65945;53.148;17.956;2023-05-16T04:37:03;4.10;;;2.00;;
77010;SDS011;65945;53.148;17.956;2023-05-16T04:39:30;2.80;;;2.10;;
77010;SDS011;65945;53.148;17.956;2023-05-16T04:41:57;3.20;;;2.00;;
77010;SDS011;65945;53.148;17.956;2023-05-16T04:44:24;4.30;;;1.90;;
77010;SDS011;65945;53.148;17.956;2023-05-16T04:46:51;2.40;;;1.90;;
77010;SDS011;65945;53.148;17.956;2023-05-16T04:49:19;2.30;;;1.90;;
77010;SDS011;65945;53.148;17.956;2023-05-16T04:51:46;2.20;;;1.70;;
77010;SDS011;65945;53.148;17.956;2023-05-16T04:54:13;2.60;;;2.00;;
77010;SDS011;65945;53.148;17.956;2023-05-16T04:56:40;2.70;;;2.00;;
77010;SDS011;65945;53.148;17.956;2023-05-16T04:59:07;3.20;;;2.00;;
77010;SDS011;65945;53.148;17.956;2023-05-16T05:01:33;4.30;;;1.70;;
77010;SDS011;65945;53.148;17.956;2023-05-16T05:04:00;3.90;;;2.20;;
77010;SDS011;65945;53.148;17.956;2023-05-16T05:06:27;3.30;;;2.30;;
77010;SDS011;65945;53.148;17.956;2023-05-16T05:08:54;3.70;;;2.00;;
77010;SDS011;65945;53.148;17.956;2023-05-16T05:11:20;3.80;;;2.60;;
77010;SDS011;65945;53.148;17.956;2023-05-16T05:13:48;2.90;;;2.30;;
77010;SDS011;65945;53.148;17.956;2023-05-16T05:16:15;4.80;;;2.70;;
77010;SDS011;65945;53.148;17.956;2023-05-16T05:18:41;4.70;;;3.10;;
77010;SDS011;65945;53.148;17.956;2023-05-16T05:21:08;3.80;;;2.90;;
77010;SDS011;65945;53.148;17.956;2023-05-16T05:23:34;6.70;;;3.20;;
77010;SDS011;65945;53.148;17.956;2023-05-16T05:26:01;3.70;;;2.70;;
77010;SDS011;65945;53.148;17.956;2023-05-16T05:28:27;3.40;;;2.80;;
77010;SDS011;65945;53.148;17.956;2023-05-16T05:30:54;4.00;;;3.00;;
77010;SDS011;65945;53.148;17.956;2023-05-16T05:33:24;7.10;;;3.00;;
77010;SDS011;65945;53.148;17.956;2023-05-16T05:35:53;5.60;;;2.80;;
77010;SDS011;65945;53.148;17.956;2023-05-16T05:38:19;7.50;;;2.70;;
77010;SDS011;65945;53.148;17.956;2023-05-16T05:40:47;5.60;;;2.50;;
77010;SDS011;65945;53.148;17.956;2023-05-16T05:43:14;5.90;;;2.60;;
77010;SDS011;65945;53.148;17.956;2023-05-16T05:45:41;5.60;;;2.60;;
77010;SDS011;65945;53.148;17.956;2023-05-16T05:48:09;4.30;;;2.50;;
77010;SDS011;65945;53.148;17.956;2023-05-16T05:50:36;6.30;;;3.10;;
77010;SDS011;65945;53.148;17.956;2023-05-16T05:53:03;5.90;;;2.40;;
77010;SDS011;65945;53.148;17.956;2023-05-16T05:55:29;5.00;;;2.90;;
77010;SDS011;65945;53.148;17.956;2023-05-16T05:57:56;4.70;;;2.60;;
77010;SDS011;65945;53.148;17.956;2023-05-16T06:00:23;4.60;;;2.80;;
77010;SDS011;65945;53.148;17.956;2023-05-16T06:02:50;3.20;;;2.20;;
77010;SDS011;65945;53.148;17.956;2023-05-16T06:05:17;5.10;;;2.80;;
77010;SDS011;65945;53.148;17.956;2023-05-16T06:07:43;4.40;;;2.40;;
77010;SDS011;65945;53.148;17.956;2023-05-16T06:10:10;6.20;;;2.40;;
77010;SDS011;65945;53.148;17.956;2023-05-16T06:12:37;4.20;;;2.90;;
77010;SDS011;65945;53.148;17.956;2023-05-16T06:15:03;5.20;;;3.00;;
77010;SDS011;65945;53.148;17.956;2023-05-16T06:17:30;4.90;;;2.80;;
77010;SDS011;65945;53.148;17.956;2023-05-16T06:19:57;4.50;;;2.50;;
77010;SDS011;65945;53.148;17.956;2023-05-16T06:22:23;3.80;;;2.80;;
77010;SDS011;65945;53.148;17.956;2023-05-16T06:24:50;4.20;;;3.00;;
77010;SDS011;65945;53.148;17.956;2023-05-16T06:27:17;5.80;;;3.30;;
77010;SDS011;65945;53.148;17.956;2023-05-16T06:29:44;3.60;;;2.50;;
77010;SDS011;65945;53.148;17.956;2023-05-16T06:32:11;4.70;;;3.00;;
77010;SDS011;65945;53.148;17.956;2023-05-16T06:34:38;4.80;;;3.30;;
77010;SDS011;65945;53.148;17.956;2023-05-16T06:37:04;6.40;;;3.10;;
77010;SDS011;65945;53.148;17.956;2023-05-16T06:39:31;5.00;;;2.90;;
77010;SDS011;65945;53.148;17.956;2023-05-16T06:41:58;4.40;;;2.90;;
77010;SDS011;65945;53.148;17.956;2023-05-16T06:44:24;3.80;;;2.90;;
77010;SDS011;65945;53.148;17.956;2023-05-16T06:46:51;7.90;;;3.30;;
77010;SDS011;65945;53.148;17.956;2023-05-16T06:49:18;4.90;;;2.60;;
77010;SDS011;65945;53.148;17.956;2023-05-16T06:51:44;9.10;;;3.30;;
77010;SDS011;65945;53.148;17.956;2023-05-16T06:54:11;6.00;;;2.90;;
77010;SDS011;65945;53.148;17.956;2023-05-16T06:56:38;5.70;;;2.80;;
77010;SDS011;65945;53.148;17.956;2023-05-16T06:59:04;4.50;;;2.80;;
77010;SDS011;65945;53.148;17.956;2023-05-16T07:01:31;4.10;;;3.10;;
77010;SDS011;65945;53.148;17.956;2023-05-16T07:03:57;4.10;;;3.20;;
77010;SDS011;65945;53.148;17.956;2023-05-16T07:06:24;6.00;;;3.60;;
77010;SDS011;65945;53.148;17.956;2023-05-16T07:08:51;5.80;;;3.20;;
77010;SDS011;65945;53.148;17.956;2023-05-16T07:11:17;11.40;;;3.70;;
77010;SDS011;65945;53.148;17.956;2023-05-16T07:13:44;6.30;;;3.40;;
77010;SDS011;65945;53.148;17.956;2023-05-16T07:16:10;6.80;;;3.20;;
77010;SDS011;65945;53.148;17.956;2023-05-16T07:18:37;5.60;;;3.20;;
77010;SDS011;65945;53.148;17.956;2023-05-16T07:21:03;4.60;;;3.40;;
77010;SDS011;65945;53.148;17.956;2023-05-16T07:23:31;5.90;;;3.50;;
77010;SDS011;65945;53.148;17.956;2023-05-16T07:25:57;6.70;;;3.70;;
77010;SDS011;65945;53.148;17.956;2023-05-16T07:28:24;7.10;;;3.00;;
77010;SDS011;65945;53.148;17.956;2023-05-16T07:30:51;7.00;;;3.50;;
77010;SDS011;65945;53.148;17.956;2023-05-16T07:33:17;7.80;;;3.70;;
77010;SDS011;65945;53.148;17.956;2023-05-16T07:35:44;8.70;;;3.20;;
77010;SDS011;65945;53.148;17.956;2023-05-16T07:38:10;5.30;;;3.10;;
77010;SDS011;65945;53.148;17.956;2023-05-16T07:40:38;5.50;;;3.30;;
77010;SDS011;65945;53.148;17.956;2023-05-16T07:43:04;7.10;;;3.20;;
77010;SDS011;65945;53.148;17.956;2023-05-16T07:45:31;4.80;;;3.40;;
77010;SDS011;65945;53.148;17.956;2023-05-16T07:47:57;4.00;;;3.00;;
77010;SDS011;65945;53.148;17.956;2023-05-16T07:50:25;5.50;;;3.10;;
77010;SDS011;65945;53.148;17.956;2023-05-16T07:52:52;5.80;;;3.00;;
77010;SDS011;65945;53.148;17.956;2023-05-16T07:55:19;4.50;;;3.00;;
77010;SDS011;65945;53.148;17.956;2023-05-16T07:57:47;7.40;;;3.30;;
77010;SDS011;65945;53.148;17.956;2023-05-16T08:00:15;6.90;;;2.70;;
77010;SDS011;65945;53.148;17.956;2023-05-16T08:02:42;4.40;;;2.90;;
77010;SDS011;65945;53.148;17.956;2023-05-16T08:05:09;4.40;;;3.20;;
77010;SDS011;65945;53.148;17.956;2023-05-16T08:07:36;5.60;;;3.00;;
77010;SDS011;65945;53.148;17.956;2023-05-16T08:10:03;4.20;;;2.60;;
77010;SDS011;65945;53.148;17.956;2023-05-16T08:12:30;5.40;;;2.80;;
77010;SDS011;65945;53.148;17.956;2023-05-16T08:14:57;3.90;;;3.00;;
77010;SDS011;65945;53.148;17.956;2023-05-16T08:17:23;4.20;;;2.40;;
77010;SDS011;65945;53.148;17.956;2023-05-16T08:19:50;4.90;;;3.00;;
77010;SDS011;65945;53.148;17.956;2023-05-16T08:22:16;5.00;;;2.50;;
77010;SDS011;65945;53.148;17.956;2023-05-16T08:24:43;3.80;;;2.60;;
77010;SDS011;65945;53.148;17.956;2023-05-16T08:27:10;5.10;;;2.70;;
77010;SDS011;65945;53.148;17.956;2023-05-16T08:29:37;6.70;;;2.70;;
77010;SDS011;65945;53.148;17.956;2023-05-16T08:32:04;4.10;;;2.50;;
77010;SDS011;65945;53.148;17.956;2023-05-16T08:34:31;6.10;;;2.70;;
77010;SDS011;65945;53.148;17.956;2023-05-16T08:36:58;6.90;;;3.20;;
77010;SDS011;65945;53.148;17.956;2023-05-16T08:39:25;5.30;;;3.00;;
77010;SDS011;65945;53.148;17.956;2023-05-16T08:41:52;5.20;;;2.80;;
77010;SDS011;65945;53.148;17.956;2023-05-16T08:44:19;7.70;;;3.20;;
77010;SDS011;65945;53.148;17.956;2023-05-16T08:46:49;5.70;;;2.10;;
77010;SDS011;65945;53.148;17.956;2023-05-16T08:49:18;4.00;;;2.70;;
77010;SDS011;65945;53.148;17.956;2023-05-16T08:51:46;4.60;;;2.70;;
77010;SDS011;65945;53.148;17.956;2023-05-16T08:54:14;5.70;;;2.20;;
77010;SDS011;65945;53.148;17.956;2023-05-16T08:56:42;5.90;;;2.80;;
77010;SDS011;65945;53.148;17.956;2023-05-16T08:59:11;2.80;;;1.90;;
77010;SDS011;65945;53.148;17.956;2023-05-16T09:01:38;3.80;;;2.10;;
77010;SDS011;65945;53.148;17.956;2023-05-16T09:04:06;4.70;;;2.20;;
77010;SDS011;65945;53.148;17.956;2023-05-16T09:06:35;3.60;;;2.20;;
77010;SDS011;65945;53.148;17.956;2023-05-16T09:09:02;3.00;;;1.90;;
77010;SDS011;65945;53.148;17.956;2023-05-16T09:11:29;3.10;;;2.10;;
77010;SDS011;65945;53.148;17.956;2023-05-16T09:13:56;3.70;;;2.10;;
77010;SDS011;65945;53.148;17.956;2023-05-16T09:16:23;2.00;;;1.50;;
77010;SDS011;65945;53.148;17.956;2023-05-16T09:18:57;3.30;;;1.80;;
77010;SDS011;65945;53.148;17.956;2023-05-16T09:21:26;2.60;;;1.60;;
77010;SDS011;65945;53.148;17.956;2023-05-16T09:24:06;4.30;;;2.00;;
77010;SDS011;65945;53.148;17.956;2023-05-16T09:26:35;2.70;;;2.00;;
77010;SDS011;65945;53.148;17.956;2023-05-16T09:29:10;2.50;;;1.80;;
77010;SDS011;65945;53.148;17.956;2023-05-16T09:31:37;3.80;;;1.90;;
77010;SDS011;65945;53.148;17.956;2023-05-16T09:34:07;3.40;;;2.00;;
77010;SDS011;65945;53.148;17.956;2023-05-16T09:36:36;2.70;;;2.00;;
77010;SDS011;65945;53.148;17.956;2023-05-16T09:39:04;2.90;;;1.90;;
77010;SDS011;65945;53.148;17.956;2023-05-16T09:41:32;4.60;;;2.10;;
77010;SDS011;65945;53.148;17.956;2023-05-16T09:44:03;4.00;;;2.10;;
77010;SDS011;65945;53.148;17.956;2023-05-16T09:46:33;3.20;;;2.10;;
77010;SDS011;65945;53.148;17.956;2023-05-16T09:49:01;4.10;;;1.50;;
77010;SDS011;65945;53.148;17.956;2023-05-16T09:51:28;3.80;;;2.10;;
77010;SDS011;65945;53.148;17.956;2023-05-16T09:53:54;2.80;;;1.70;;
77010;SDS011;65945;53.148;17.956;2023-05-16T09:56:24;3.20;;;1.80;;
77010;SDS011;65945;53.148;17.956;2023-05-16T09:58:50;2.70;;;2.20;;
77010;SDS011;65945;53.148;17.956;2023-05-16T10:01:17;3.20;;;2.20;;
77010;SDS011;65945;53.148;17.956;2023-05-16T10:03:44;5.70;;;1.90;;
77010;SDS011;65945;53.148;17.956;2023-05-16T10:06:11;4.80;;;1.90;;
77010;SDS011;65945;53.148;17.956;2023-05-16T10:08:39;3.00;;;1.70;;
77010;SDS011;65945;53.148;17.956;2023-05-16T10:11:07;2.50;;;1.60;;
77010;SDS011;65945;53.148;17.956;2023-05-16T10:13:35;3.50;;;1.90;;
77010;SDS011;65945;53.148;17.956;2023-05-16T10:16:11;3.60;;;2.00;;
77010;SDS011;65945;53.148;17.956;2023-05-16T10:18:39;3.50;;;1.80;;
77010;SDS011;65945;53.148;17.956;2023-05-16T10:21:08;3.10;;;1.70;;
77010;SDS011;65945;53.148;17.956;2023-05-16T10:23:41;3.00;;;1.90;;
77010;SDS011;65945;53.148;17.956;2023-05-16T10:26:10;2.90;;;1.80;;
77010;SDS011;65945;53.148;17.956;2023-05-16T10:28:39;2.90;;;2.00;;
77010;SDS011;65945;53.148;17.956;2023-05-16T10:31:06;3.90;;;1.70;;
77010;SDS011;65945;53.148;17.956;2023-05-16T10:33:35;2.80;;;1.90;;
77010;SDS011;65945;53.148;17.956;2023-05-16T10:36:02;2.80;;;2.00;;
77010;SDS011;65945;53.148;17.956;2023-05-16T10:38:30;2.70;;;1.90;;
77010;SDS011;65945;53.148;17.956;2023-05-16T10:40:58;2.90;;;2.30;;
77010;SDS011;65945;53.148;17.956;2023-05-16T10:43:26;4.60;;;2.00;;
77010;SDS011;65945;53.148;17.956;2023-05-16T10:45:56;3.00;;;2.20;;
77010;SDS011;65945;53.148;17.956;2023-05-16T10:48:32;3.70;;;2.10;;
77010;SDS011;65945;53.148;17.956;2023-05-16T10:51:02;3.10;;;2.10;;
77010;SDS011;65945;53.148;17.956;2023-05-16T10:53:32;4.40;;;2.00;;
77010;SDS011;65945;53.148;17.956;2023-05-16T11:06:23;5.20;;;2.10;;
77010;SDS011;65945;53.148;17.956;2023-05-16T11:17:21;3.40;;;2.20;;
77010;SDS011;65945;53.148;17.956;2023-05-16T11:19:51;3.90;;;1.90;;
77010;SDS011;65945;53.148;17.956;2023-05-16T11:25:06;4.00;;;2.30;;
77010;SDS011;65945;53.148;17.956;2023-05-16T11:27:35;5.30;;;2.00;;
77010;SDS011;65945;53.148;17.956;2023-05-16T11:30:12;4.40;;;2.30;;
77010;SDS011;65945;53.148;17.956;2023-05-16T11:32:41;3.30;;;2.20;;
77010;SDS011;65945;53.148;17.956;2023-05-16T11:35:10;3.60;;;2.10;;
77010;SDS011;65945;53.148;17.956;2023-05-16T11:37:42;4.00;;;2.30;;
77010;SDS011;65945;53.148;17.956;2023-05-16T11:40:10;3.90;;;2.30;;
77010;SDS011;65945;53.148;17.956;2023-05-16T11:42:45;5.00;;;2.60;;
77010;SDS011;65945;53.148;17.956;2023-05-16T11:45:14;3.40;;;2.60;;
77010;SDS011;65945;53.148;17.956;2023-05-16T11:47:45;6.00;;;2.60;;
77010;SDS011;65945;53.148;17.956;2023-05-16T11:50:14;3.70;;;2.30;;
77010;SDS011;65945;53.148;17.956;2023-05-16T11:52:43;3.50;;;2.50;;
77010;SDS011;65945;53.148;17.956;2023-05-16T11:55:12;5.00;;;2.80;;
77010;SDS011;65945;53.148;17.956;2023-05-16T11:57:40;3.60;;;2.50;;
77010;SDS011;65945;53.148;17.956;2023-05-16T12:00:20;5.20;;;2.30;;
77010;SDS011;65945;53.148;17.956;2023-05-16T12:02:49;3.40;;;2.50;;
77010;SDS011;65945;53.148;17.956;2023-05-16T12:05:16;3.80;;;2.70;;
77010;SDS011;65945;53.148;17.956;2023-05-16T12:07:46;4.70;;;2.60;;
77010;SDS011;65945;53.148;17.956;2023-05-16T12:10:14;3.70;;;2.50;;
77010;SDS011;65945;53.148;17.956;2023-05-16T12:12:42;8.00;;;2.60;;
77010;SDS011;65945;53.148;17.956;2023-05-16T12:15:11;4.10;;;2.60;;
77010;SDS011;65945;53.148;17.956;2023-05-16T12:17:39;3.50;;;2.50;;
77010;SDS011;65945;53.148;17.956;2023-05-16T12:20:08;4.40;;;2.50;;
77010;SDS011;65945;53.148;17.956;2023-05-16T12:22:39;3.90;;;2.40;;
77010;SDS011;65945;53.148;17.956;2023-05-16T12:25:26;7.90;;;2.50;;
77010;SDS011;65945;53.148;17.956;2023-05-16T12:27:58;4.20;;;2.60;;
77010;SDS011;65945;53.148;17.956;2023-05-16T12:30:26;4.40;;;2.50;;
77010;SDS011;65945;53.148;17.956;2023-05-16T12:33:00;3.40;;;2.50;;
77010;SDS011;65945;53.148;17.956;2023-05-16T12:35:30;4.30;;;2.50;;
77010;SDS011;65945;53.148;17.956;2023-05-16T12:37:59;5.30;;;2.50;;
77010;SDS011;65945;53.148;17.956;2023-05-16T12:40:29;3.70;;;2.50;;
77010;SDS011;65945;53.148;17.956;2023-05-16T12:42:56;4.60;;;2.50;;
77010;SDS011;65945;53.148;17.956;2023-05-16T12:45:23;4.50;;;2.30;;
77010;SDS011;65945;53.148;17.956;2023-05-16T12:47:53;5.60;;;2.70;;
77010;SDS011;65945;53.148;17.956;2023-05-16T12:50:19;5.10;;;2.80;;
77010;SDS011;65945;53.148;17.956;2023-05-16T12:52:51;5.80;;;2.90;;
77010;SDS011;65945;53.148;17.956;2023-05-16T12:55:20;6.00;;;2.50;;
77010;SDS011;65945;53.148;17.956;2023-05-16T12:57:48;6.70;;;3.40;;
77010;SDS011;65945;53.148;17.956;2023-05-16T13:00:17;7.40;;;4.60;;
77010;SDS011;65945;53.148;17.956;2023-05-16T13:02:46;8.50;;;4.70;;
77010;SDS011;65945;53.148;17.956;2023-05-16T13:05:13;7.10;;;4.50;;
77010;SDS011;65945;53.148;17.956;2023-05-16T13:07:40;6.10;;;4.90;;
77010;SDS011;65945;53.148;17.956;2023-05-16T13:10:07;8.40;;;5.10;;
77010;SDS011;65945;53.148;17.956;2023-05-16T13:12:38;9.20;;;5.40;;
77010;SDS011;65945;53.148;17.956;2023-05-16T13:15:06;9.40;;;5.60;;
77010;SDS011;65945;53.148;17.956;2023-05-16T13:17:35;11.10;;;5.20;;
77010;SDS011;65945;53.148;17.956;2023-05-16T13:20:03;7.90;;;4.40;;
77010;SDS011;65945;53.148;17.956;2023-05-16T13:22:35;7.10;;;4.80;;
77010;SDS011;65945;53.148;17.956;2023-05-16T13:25:02;7.10;;;4.40;;
77010;SDS011;65945;53.148;17.956;2023-05-16T13:27:31;10.10;;;5.10;;
77010;SDS011;65945;53.148;17.956;2023-05-16T13:29:58;8.50;;;4.60;;
77010;SDS011;65945;53.148;17.956;2023-05-16T13:32:26;9.30;;;5.10;;
77010;SDS011;65945;53.148;17.956;2023-05-16T13:34:52;8.70;;;5.20;;
77010;SDS011;65945;53.148;17.956;2023-05-16T13:37:19;9.90;;;5.50;;
77010;SDS011;65945;53.148;17.956;2023-05-16T13:39:46;9.40;;;5.00;;
77010;SDS011;65945;53.148;17.956;2023-05-16T13:42:13;9.50;;;4.40;;
77010;SDS011;65945;53.148;17.956;2023-05-16T13:44:40;7.00;;;4.60;;
77010;SDS011;65945;53.148;17.956;2023-05-16T13:47:07;9.20;;;5.40;;
77010;SDS011;65945;53.148;17.956;2023-05-16T13:49:34;6.60;;;5.00;;
77010;SDS011;65945;53.148;17.956;2023-05-16T13:52:00;8.50;;;5.00;;
77010;SDS011;65945;53.148;17.956;2023-05-16T13:54:27;8.70;;;5.60;;
77010;SDS011;65945;53.148;17.956;2023-05-16T13:56:54;8.20;;;5.20;;
77010;SDS011;65945;53.148;17.956;2023-05-16T13:59:21;9.30;;;5.40;;
77010;SDS011;65945;53.148;17.956;2023-05-16T14:01:47;7.80;;;4.90;;
77010;SDS011;65945;53.148;17.956;2023-05-16T14:04:14;8.60;;;5.70;;
77010;SDS011;65945;53.148;17.956;2023-05-16T14:06:40;7.70;;;5.50;;
77010;SDS011;65945;53.148;17.956;2023-05-16T14:09:07;7.20;;;5.00;;
77010;SDS011;65945;53.148;17.956;2023-05-16T14:11:34;5.30;;;4.50;;
77010;SDS011;65945;53.148;17.956;2023-05-16T14:14:01;6.70;;;5.20;;
77010;SDS011;65945;53.148;17.956;2023-05-16T14:16:28;7.00;;;4.90;;
77010;SDS011;65945;53.148;17.956;2023-05-16T14:18:56;7.40;;;5.40;;
77010;SDS011;65945;53.148;17.956;2023-05-16T14:21:22;8.50;;;4.70;;
77010;SDS011;65945;53.148;17.956;2023-05-16T14:23:49;7.70;;;5.10;;
77010;SDS011;65945;53.148;17.956;2023-05-16T14:26:16;7.40;;;4.60;;
77010;SDS011;65945;53.148;17.956;2023-05-16T14:28:47;10.10;;;4.70;;
77010;SDS011;65945;53.148;17.956;2023-05-16T14:31:14;7.90;;;4.00;;
77010;SDS011;65945;53.148;17.956;2023-05-16T14:33:40;7.70;;;4.90;;
77010;SDS011;65945;53.148;17.956;2023-05-16T14:36:09;7.20;;;4.90;;
77010;SDS011;65945;53.148;17.956;2023-05-16T14:38:35;8.90;;;6.10;;
77010;SDS011;65945;53.148;17.956;2023-05-16T14:41:02;8.10;;;5.90;;
77010;SDS011;65945;53.148;17.956;2023-05-16T14:43:28;10.30;;;6.40;;
77010;SDS011;65945;53.148;17.956;2023-05-16T14:45:55;10.00;;;6.60;;
77010;SDS011;65945;53.148;17.956;2023-05-16T14:48:22;9.10;;;6.50;;
77010;SDS011;65945;53.148;17.956;2023-05-16T14:50:49;10.40;;;6.80;;
77010;SDS011;65945;53.148;17.956;2023-05-16T14:53:16;9.60;;;5.70;;
77010;SDS011;65945;53.148;17.956;2023-05-16T14:55:43;10.60;;;6.60;;
77010;SDS011;65945;53.148;17.956;2023-05-16T14:58:10;11.20;;;6.30;;
77010;SDS011;65945;53.148;17.956;2023-05-16T15:00:37;10.30;;;6.00;;
77010;SDS011;65945;53.148;17.956;2023-05-16T15:03:03;8.60;;;6.40;;
77010;SDS011;65945;53.148;17.956;2023-05-16T15:05:30;10.80;;;6.80;;
77010;SDS011;65945;53.148;17.956;2023-05-16T15:07:57;11.20;;;6.40;;
77010;SDS011;65945;53.148;17.956;2023-05-16T15:10:24;10.10;;;6.50;;